Time;durP1;ratioP1;P1;durP2;ratioP2;P2;SDS_P1;SDS_P2;PMS_P1;PMS_P2;Temp;Humidity;BMP_temperature;BMP_pressure;BME280_temperature;BME280_humidity;BME280_pressure;Samples;Min_cycle;Max_cycle;Signal;HPM_P1;HPM_P2
2024/03/29 00:00:42;;;;;;;6.55;3.78;;;5.90;95.70;;;;;;5004723;28;20550;-92
2024/03/29 00:03:09;;;;;;;6.95;3.38;;;5.90;95.30;;;;;;5014230;28;20492;-93
2024/03/29 00:05:35;;;;;;;6.20;4.35;;;5.90;95.20;;;;;;5012736;28;20512;-92
2024/03/29 00:08:01;;;;;;;5.53;4.30;;;5.90;96.10;;;;;;5011253;28;20117;-91
2024/03/29 00:10:26;;;;;;;8.90;3.45;;;5.90;95.30;;;;;;5004189;28;20396;-91
2024/03/29 00:12:52;;;;;;;4.03;2.78;;;5.90;95.70;;;;;;5016704;28;20030;-92
2024/03/29 00:15:18;;;;;;;5.50;3.28;;;6.00;95.40;;;;;;5005115;28;20141;-92
2024/03/29 00:17:43;;;;;;;8.02;3.30;;;6.10;93.30;;;;;;5010421;28;20026;-91
2024/03/29 00:20:09;;;;;;;5.90;4.50;;;6.20;93.40;;;;;;5015665;28;20026;-92
2024/03/29 00:22:35;;;;;;;5.05;2.85;;;6.10;94.60;;;;;;5015719;28;20041;-91
2024/03/29 00:25:01;;;;;;;5.05;3.85;;;6.20;94.10;;;;;;5007716;28;20026;-91
2024/03/29 00:27:28;;;;;;;7.47;2.78;;;6.20;94.20;;;;;;5013289;28;20352;-91
2024/03/29 00:29:54;;;;;;;4.97;3.20;;;6.40;92.30;;;;;;5015897;28;20022;-93
2024/03/29 00:32:21;;;;;;;3.25;2.83;;;6.40;89.70;;;;;;5015689;28;20029;-91
2024/03/29 00:34:49;;;;;;;3.35;2.38;;;6.50;88.40;;;;;;5015278;28;20014;-90
2024/03/29 00:37:15;;;;;;;4.78;2.63;;;6.50;87.30;;;;;;5015697;28;20018;-92
2024/03/29 00:39:41;;;;;;;3.50;2.70;;;6.60;85.90;;;;;;5012211;28;20026;-91
2024/03/29 00:42:08;;;;;;;4.93;2.33;;;6.70;84.80;;;;;;5013472;28;20086;-92
2024/03/29 00:44:37;;;;;;;3.72;3.00;;;6.80;84.20;;;;;;5007700;28;20032;-91
2024/03/29 00:47:04;;;;;;;2.83;2.00;;;6.80;83.80;;;;;;5015294;28;20380;-91
2024/03/29 00:49:29;;;;;;;4.45;2.42;;;6.90;81.20;;;;;;5015074;28;20555;-91
2024/03/29 00:51:55;;;;;;;3.85;2.40;;;7.00;80.30;;;;;;5015390;28;20061;-92
2024/03/29 00:54:23;;;;;;;4.45;2.85;;;7.00;81.40;;;;;;5014869;28;20154;-91
2024/03/29 00:56:49;;;;;;;6.47;2.53;;;6.90;83.00;;;;;;4997814;28;20026;-92
2024/03/29 00:59:16;;;;;;;3.22;2.75;;;6.90;84.40;;;;;;5002725;28;20028;-92
2024/03/29 01:01:42;;;;;;;2.83;2.35;;;6.90;84.90;;;;;;5010642;28;20029;-93
2024/03/29 01:04:08;;;;;;;2.90;2.60;;;6.90;85.50;;;;;;5006728;28;20030;-91
2024/03/29 01:06:33;;;;;;;4.10;2.53;;;7.00;84.70;;;;;;5001936;28;20033;-93
2024/03/29 01:09:00;;;;;;;5.00;4.13;;;7.00;85.30;;;;;;5015012;28;20559;-92
2024/03/29 01:11:26;;;;;;;4.13;2.17;;;6.90;86.30;;;;;;5008633;28;20022;-93
2024/03/29 01:13:52;;;;;;;4.88;3.03;;;6.80;86.20;;;;;;5013591;28;20103;-92
2024/03/29 01:16:17;;;;;;;6.22;3.03;;;6.80;86.20;;;;;;5021476;28;20022;-95
2024/03/29 01:18:43;;;;;;;5.90;3.70;;;6.80;86.60;;;;;;5030045;28;20097;-93
2024/03/29 01:21:10;;;;;;;4.95;3.10;;;6.70;87.80;;;;;;5019238;28;20023;-93
2024/03/29 01:23:37;;;;;;;3.50;2.72;;;6.70;87.70;;;;;;5017512;28;20109;-91
2024/03/29 01:26:04;;;;;;;4.10;2.35;;;6.70;86.50;;;;;;5012522;28;20495;-91
2024/03/29 01:28:29;;;;;;;3.80;3.50;;;6.70;86.40;;;;;;5001445;28;20014;-91
2024/03/29 01:30:55;;;;;;;4.30;2.88;;;6.70;86.80;;;;;;4995435;28;20094;-90
2024/03/29 01:33:21;;;;;;;3.83;3.35;;;6.70;86.20;;;;;;5014446;28;20026;-92
2024/03/29 01:35:47;;;;;;;6.38;3.92;;;6.80;87.50;;;;;;5014768;28;20053;-91
2024/03/29 01:38:14;;;;;;;5.97;3.65;;;6.80;89.30;;;;;;5016243;28;20041;-93
2024/03/29 01:40:39;;;;;;;5.88;3.65;;;6.80;89.70;;;;;;5004911;28;20034;-90
2024/03/29 01:43:06;;;;;;;6.82;3.22;;;6.80;89.00;;;;;;5018408;28;20450;-91
2024/03/29 01:45:32;;;;;;;4.68;3.08;;;6.70;89.80;;;;;;5017509;28;20030;-91
2024/03/29 01:47:58;;;;;;;6.57;3.85;;;6.80;88.00;;;;;;5018111;28;20420;-90
2024/03/29 01:50:24;;;;;;;3.92;3.08;;;6.80;89.50;;;;;;5017887;28;20026;-92
2024/03/29 01:52:50;;;;;;;3.97;3.13;;;6.80;87.80;;;;;;5011326;28;20037;-92
2024/03/29 01:55:16;;;;;;;2.60;2.10;;;6.80;87.50;;;;;;5016474;28;20037;-93
2024/03/29 01:57:42;;;;;;;4.53;2.70;;;6.90;86.20;;;;;;5016589;28;20022;-93
2024/03/29 02:00:09;;;;;;;4.18;2.70;;;7.00;86.00;;;;;;5006722;28;20027;-91
2024/03/29 02:02:36;;;;;;;5.53;2.60;;;7.10;86.50;;;;;;5007993;28;20676;-91
2024/03/29 02:05:02;;;;;;;6.90;2.40;;;7.10;87.40;;;;;;5010264;28;20034;-94
2024/03/29 02:07:29;;;;;;;6.90;3.03;;;7.20;88.70;;;;;;5012976;28;20579;-93
2024/03/29 02:09:54;;;;;;;4.93;3.88;;;7.20;91.20;;;;;;5013826;28;20058;-92
2024/03/29 02:12:20;;;;;;;4.25;3.45;;;7.20;93.40;;;;;;5013893;28;20034;-93
2024/03/29 02:14:46;;;;;;;4.43;3.10;;;7.10;93.10;;;;;;5012259;28;20049;-92
2024/03/29 02:17:11;;;;;;;5.22;3.70;;;7.10;93.40;;;;;;5017294;28;20440;-93
2024/03/29 02:19:37;;;;;;;5.05;3.70;;;7.10;93.10;;;;;;5018008;28;20022;-93
2024/03/29 02:22:06;;;;;;;5.28;3.35;;;7.10;93.40;;;;;;5013902;28;20085;-92
2024/03/29 02:24:32;;;;;;;6.88;3.75;;;7.10;93.40;;;;;;5017606;28;20053;-93
2024/03/29 02:26:57;;;;;;;3.50;2.60;;;7.10;92.80;;;;;;4998310;28;20041;-94
2024/03/29 02:29:24;;;;;;;4.10;3.70;;;7.10;91.50;;;;;;5019222;28;20031;-91
2024/03/29 02:31:50;;;;;;;4.07;2.47;;;7.20;91.50;;;;;;5012637;28;20025;-93
2024/03/29 02:34:16;;;;;;;4.20;2.95;;;7.30;91.40;;;;;;5016357;28;20029;-94
2024/03/29 02:36:43;;;;;;;4.65;3.72;;;7.20;93.40;;;;;;5016416;28;20041;-91
2024/03/29 02:39:09;;;;;;;5.45;3.45;;;7.10;93.40;;;;;;5017014;28;20026;-92
2024/03/29 02:41:35;;;;;;;4.28;3.13;;;7.10;92.70;;;;;;5009166;28;20034;-91
2024/03/29 02:44:01;;;;;;;5.93;3.70;;;7.10;95.20;;;;;;5016603;28;20240;-92
2024/03/29 02:46:26;;;;;;;5.00;3.05;;;7.10;95.50;;;;;;5016882;28;20029;-90
2024/03/29 02:48:52;;;;;;;5.65;3.33;;;7.10;95.90;;;;;;5015650;28;20518;-91
2024/03/29 02:51:18;;;;;;;10.18;3.65;;;7.10;96.00;;;;;;5007391;28;20030;-91
2024/03/29 02:53:43;;;;;;;4.32;3.17;;;7.20;96.30;;;;;;5017085;28;20026;-92
2024/03/29 02:56:09;;;;;;;4.45;3.15;;;7.20;95.90;;;;;;5013350;28;20018;-92
2024/03/29 02:58:35;;;;;;;7.63;3.38;;;7.10;95.30;;;;;;5006184;28;20046;-92
2024/03/29 03:01:07;;;;;;;5.57;3.30;;;7.10;95.30;;;;;;5011469;28;20029;-93
2024/03/29 03:03:33;;;;;;;4.50;2.70;;;7.10;95.40;;;;;;5014716;28;20068;-92
2024/03/29 03:05:59;;;;;;;4.57;3.13;;;7.00;96.10;;;;;;5013042;28;20022;-93
2024/03/29 03:11:10;;;;;;;5.38;3.17;;;7.10;98.00;;;;;;5015628;28;20041;-91
2024/03/29 03:13:36;;;;;;;6.78;3.85;;;7.10;98.90;;;;;;5017174;28;20022;-92
2024/03/29 03:16:01;;;;;;;4.88;2.58;;;7.10;99.00;;;;;;5016272;28;20480;-91
2024/03/29 03:18:27;;;;;;;4.25;3.00;;;7.20;99.90;;;;;;5008669;28;20057;-92
2024/03/29 03:20:57;;;;;;;5.82;3.03;;;7.10;99.90;;;;;;5016591;28;20033;-90
2024/03/29 03:23:24;;;;;;;5.72;3.08;;;7.10;99.90;;;;;;5016907;28;20641;-91
2024/03/29 03:26:00;;;;;;;6.47;3.33;;;7.10;98.90;;;;;;5016333;28;20041;-92
2024/03/29 03:28:26;;;;;;;6.57;3.80;;;7.00;99.90;;;;;;5016404;28;20030;-90
2024/03/29 03:30:53;;;;;;;5.20;3.67;;;7.10;99.90;;;;;;5014870;28;20088;-92
2024/03/29 03:33:20;;;;;;;5.45;3.50;;;7.10;99.90;;;;;;5004651;28;20026;-91
2024/03/29 03:35:46;;;;;;;6.38;3.75;;;7.00;99.90;;;;;;5011531;28;20072;-93
2024/03/29 03:38:12;;;;;;;6.28;3.50;;;7.10;99.90;;;;;;5015948;28;20037;-93
2024/03/29 03:40:38;;;;;;;7.20;3.63;;;7.10;99.90;;;;;;5015455;28;20032;-92
2024/03/29 03:43:07;;;;;;;4.88;3.30;;;7.00;99.90;;;;;;5015585;28;20034;-92
2024/03/29 03:45:39;;;;;;;3.88;2.65;;;7.00;99.90;;;;;;5014667;28;20026;-90
2024/03/29 03:48:06;;;;;;;4.25;3.08;;;7.00;99.90;;;;;;5015531;28;20026;-92
2024/03/29 03:50:32;;;;;;;3.80;2.80;;;7.10;99.90;;;;;;5016054;28;20096;-93
2024/03/29 03:52:58;;;;;;;2.50;2.17;;;7.20;99.90;;;;;;5010219;28;20022;-93
2024/03/29 03:55:24;;;;;;;3.15;2.72;;;7.20;97.90;;;;;;5000662;28;20057;-92
2024/03/29 03:57:50;;;;;;;6.15;4.40;;;7.30;96.80;;;;;;5014446;28;20025;-92
2024/03/29 04:00:17;;;;;;;4.65;3.28;;;7.40;99.90;;;;;;5005809;28;20495;-92
2024/03/29 04:02:48;;;;;;;4.00;2.47;;;7.30;99.90;;;;;;5017356;28;20045;-93
2024/03/29 04:05:13;;;;;;;4.75;3.65;;;7.30;99.90;;;;;;5018943;28;20148;-92
2024/03/29 04:07:39;;;;;;;4.70;2.60;;;7.20;99.90;;;;;;5012013;28;20053;-91
2024/03/29 04:10:05;;;;;;;3.78;2.65;;;7.20;99.90;;;;;;5012264;28;20164;-93
2024/03/29 04:12:30;;;;;;;3.50;2.20;;;7.20;99.90;;;;;;5014068;28;20026;-91
2024/03/29 04:14:56;;;;;;;4.38;2.50;;;7.20;99.90;;;;;;5015498;28;20500;-92
2024/03/29 04:17:23;;;;;;;4.20;2.85;;;7.20;99.90;;;;;;5016401;28;20030;-92
2024/03/29 04:19:49;;;;;;;5.20;2.88;;;7.20;99.90;;;;;;5015825;28;20037;-91
2024/03/29 04:22:14;;;;;;;4.43;3.80;;;7.20;99.90;;;;;;5006237;28;20056;-90
2024/03/29 04:24:40;;;;;;;5.57;2.83;;;7.20;99.90;;;;;;5009065;28;20030;-91
2024/03/29 04:27:06;;;;;;;3.88;2.80;;;7.10;99.90;;;;;;5016521;28;20484;-91
2024/03/29 04:29:31;;;;;;;2.38;1.95;;;7.10;99.90;;;;;;5016584;28;20022;-94
2024/03/29 04:31:57;;;;;;;5.55;3.20;;;7.10;99.90;;;;;;5019601;28;20062;-95
2024/03/29 04:34:22;;;;;;;5.63;2.83;;;7.10;99.90;;;;;;5034358;28;20034;-94
2024/03/29 04:36:48;;;;;;;4.35;2.33;;;7.10;99.90;;;;;;5029267;28;20007;-94
2024/03/29 04:39:13;;;;;;;4.55;3.50;;;7.10;99.90;;;;;;5034130;28;20018;-93
2024/03/29 04:41:39;;;;;;;3.92;2.85;;;7.20;99.90;;;;;;5016597;28;20115;-94
2024/03/29 04:44:05;;;;;;;5.78;2.88;;;7.20;99.90;;;;;;5006435;28;20031;-92
2024/03/29 04:46:31;;;;;;;3.35;3.05;;;7.20;99.90;;;;;;5004085;28;20037;-91
2024/03/29 04:48:57;;;;;;;5.15;3.20;;;7.20;99.90;;;;;;4997008;28;20540;-91
2024/03/29 04:51:23;;;;;;;4.20;2.47;;;7.20;99.90;;;;;;5004481;28;20034;-90
2024/03/29 04:53:49;;;;;;;3.42;2.78;;;7.20;99.90;;;;;;5015223;28;20036;-92
2024/03/29 04:56:14;;;;;;;4.35;3.13;;;7.20;99.90;;;;;;5014895;28;20088;-92
2024/03/29 04:58:40;;;;;;;5.15;2.47;;;7.20;99.90;;;;;;5006943;28;20034;-92
2024/03/29 05:01:06;;;;;;;4.20;2.42;;;7.20;99.90;;;;;;5007798;28;20094;-92
2024/03/29 05:03:32;;;;;;;4.43;2.83;;;7.20;99.90;;;;;;5014859;28;20026;-92
2024/03/29 05:05:58;;;;;;;4.97;2.90;;;7.20;99.90;;;;;;5015453;28;20037;-93
2024/03/29 05:08:23;;;;;;;5.15;2.97;;;7.20;99.90;;;;;;5015576;28;20033;-92
2024/03/29 05:10:51;;;;;;;2.72;2.53;;;7.20;99.90;;;;;;5014395;28;20109;-92
2024/03/29 05:13:18;;;;;;;3.60;2.17;;;7.20;99.90;;;;;;5016157;28;20056;-91
2024/03/29 05:15:44;;;;;;;3.58;3.15;;;7.20;99.90;;;;;;5019626;28;20053;-93
2024/03/29 05:18:09;;;;;;;4.22;3.40;;;7.10;99.90;;;;;;5018576;28;20121;-91
2024/03/29 05:20:36;;;;;;;4.53;2.33;;;7.20;99.90;;;;;;5005718;28;20029;-92
2024/03/29 05:23:02;;;;;;;4.20;3.83;;;7.20;99.90;;;;;;5015808;28;20080;-93
2024/03/29 05:25:27;;;;;;;2.88;2.25;;;7.20;99.90;;;;;;5015859;28;20034;-93
2024/03/29 05:27:53;;;;;;;4.18;2.38;;;7.20;99.90;;;;;;5014401;28;20034;-92
2024/03/29 05:30:19;;;;;;;5.00;2.75;;;7.20;99.90;;;;;;5000850;28;20034;-92
2024/03/29 05:32:45;;;;;;;3.78;2.83;;;7.20;99.90;;;;;;5017981;28;20578;-92
2024/03/29 05:35:11;;;;;;;2.47;2.08;;;7.20;99.90;;;;;;5018354;28;20037;-91
2024/03/29 05:37:37;;;;;;;4.50;2.55;;;7.20;99.90;;;;;;5018381;28;20022;-92
2024/03/29 05:40:07;;;;;;;4.30;2.20;;;7.20;99.90;;;;;;5009837;28;20108;-91
2024/03/29 05:42:35;;;;;;;4.68;3.10;;;7.20;99.90;;;;;;5016488;28;20034;-92
2024/03/29 05:45:00;;;;;;;4.15;2.25;;;7.40;99.90;;;;;;5012722;28;20032;-92
2024/03/29 05:47:26;;;;;;;3.72;2.25;;;7.30;99.90;;;;;;5014285;28;20113;-94
2024/03/29 05:49:53;;;;;;;3.20;2.35;;;7.40;99.90;;;;;;5009799;28;20026;-91
2024/03/29 05:52:20;;;;;;;4.10;2.35;;;7.40;99.90;;;;;;5009214;28;20034;-92
2024/03/29 05:54:46;;;;;;;3.70;2.25;;;7.50;99.70;;;;;;5008625;28;20031;-91
2024/03/29 05:57:12;;;;;;;3.00;2.20;;;7.40;99.80;;;;;;5015173;28;20041;-91
2024/03/29 05:59:38;;;;;;;3.33;2.30;;;7.50;99.50;;;;;;5016859;28;20049;-92
2024/03/29 06:02:04;;;;;;;3.92;2.17;;;7.50;99.10;;;;;;5013693;28;20038;-92
2024/03/29 06:04:33;;;;;;;5.75;2.65;;;7.50;97.70;;;;;;5016973;28;20032;-92
2024/03/29 06:07:03;;;;;;;3.03;2.70;;;7.60;98.30;;;;;;5017594;28;20037;-91
2024/03/29 06:09:29;;;;;;;3.58;2.38;;;7.60;98.10;;;;;;5010348;28;20214;-91
2024/03/29 06:11:56;;;;;;;2.60;2.28;;;7.60;97.80;;;;;;5009298;28;20037;-93
2024/03/29 06:17:25;;;;;;;3.40;2.03;;;7.60;97.30;;;;;;5017812;28;20065;-92
2024/03/29 06:19:56;;;;;;;2.88;2.03;;;7.70;97.60;;;;;;5018362;28;20037;-91
2024/03/29 06:22:25;;;;;;;5.32;2.25;;;7.80;96.50;;;;;;5016231;28;20483;-91
2024/03/29 06:24:51;;;;;;;3.65;3.28;;;7.80;98.20;;;;;;5015946;28;20096;-92
2024/03/29 06:27:22;;;;;;;4.85;2.80;;;7.80;96.70;;;;;;5017739;28;20030;-92
2024/03/29 06:29:51;;;;;;;4.00;3.10;;;7.70;97.60;;;;;;5002928;28;20035;-92
2024/03/29 06:32:18;;;;;;;3.22;2.13;;;7.90;96.80;;;;;;5010523;28;20364;-93
2024/03/29 06:34:45;;;;;;;5.20;2.42;;;7.90;96.50;;;;;;5019838;28;20112;-93
2024/03/29 06:37:10;;;;;;;5.07;2.72;;;7.80;97.70;;;;;;5018578;28;20038;-93
2024/03/29 06:39:36;;;;;;;6.25;4.28;;;7.80;98.90;;;;;;5013355;28;20111;-92
2024/03/29 06:42:02;;;;;;;3.50;2.50;;;7.60;99.70;;;;;;5007843;28;20026;-92
2024/03/29 06:44:28;;;;;;;5.18;2.80;;;7.60;99.90;;;;;;5010019;28;20058;-92
2024/03/29 06:46:54;;;;;;;10.60;8.00;;;7.60;99.90;;;;;;5009858;28;20034;-91
2024/03/29 06:49:19;;;;;;;3.92;3.20;;;7.50;99.90;;;;;;5010648;28;20042;-92
2024/03/29 06:51:45;;;;;;;69.78;52.88;;;7.50;99.90;;;;;;5018011;28;20102;-91
2024/03/29 06:54:11;;;;;;;25.10;19.50;;;7.40;99.90;;;;;;5019115;28;20029;-92
2024/03/29 06:56:36;;;;;;;8.20;7.22;;;7.50;99.90;;;;;;5019095;28;20049;-91
2024/03/29 06:59:02;;;;;;;7.75;5.68;;;7.50;99.90;;;;;;5010320;28;20435;-93
2024/03/29 07:01:28;;;;;;;5.82;3.08;;;7.60;99.90;;;;;;5010025;28;20076;-93
2024/03/29 07:03:56;;;;;;;10.13;5.82;;;7.60;99.90;;;;;;5009821;28;20035;-94
2024/03/29 07:06:21;;;;;;;;;;;7.70;99.90;;;;;;5006140;28;20037;-92
2024/03/29 07:08:47;;;;;;;6.13;4.85;;;7.60;99.90;;;;;;5009069;28;19910;-95
2024/03/29 07:11:13;;;;;;;6.78;3.70;;;7.70;99.90;;;;;;5015341;28;20026;-92
2024/03/29 07:13:39;;;;;;;3.53;3.08;;;7.70;99.90;;;;;;5007722;28;20097;-91
2024/03/29 07:16:06;;;;;;;6.50;4.07;;;7.70;99.90;;;;;;5005809;28;20068;-91
2024/03/29 07:18:32;;;;;;;6.35;5.63;;;7.70;99.90;;;;;;5003520;28;20057;-91
2024/03/29 07:20:57;;;;;;;5.35;4.10;;;7.70;99.90;;;;;;5003725;28;20022;-92
2024/03/29 07:23:23;;;;;;;3.75;2.53;;;7.70;99.90;;;;;;5011501;28;20088;-91
2024/03/29 07:26:03;;;;;;;6.70;3.47;;;7.70;99.90;;;;;;5016895;28;20036;-91
2024/03/29 07:28:29;;;;;;;6.72;3.88;;;7.60;99.90;;;;;;5018350;28;20030;-90
2024/03/29 07:30:55;;;;;;;5.15;4.65;;;7.60;99.90;;;;;;5019702;28;20037;-90
2024/03/29 07:33:25;;;;;;;7.72;3.88;;;7.40;99.90;;;;;;5018408;28;20112;-91
2024/03/29 07:35:54;;;;;;;6.50;3.70;;;7.30;99.90;;;;;;5017209;28;20229;-91
2024/03/29 07:38:20;;;;;;;6.13;4.68;;;7.30;99.90;;;;;;5005869;28;20025;-90
2024/03/29 07:40:47;;;;;;;6.80;3.45;;;7.20;99.90;;;;;;5016440;28;20038;-91
2024/03/29 07:43:16;;;;;;;5.10;3.47;;;7.20;99.90;;;;;;5012368;28;20035;-91
2024/03/29 07:45:45;;;;;;;6.05;3.55;;;7.20;99.90;;;;;;5013275;28;20246;-92
2024/03/29 07:48:16;;;;;;;5.03;4.45;;;7.20;99.90;;;;;;5014422;28;20014;-91
2024/03/29 07:50:42;;;;;;;6.03;3.80;;;7.20;99.90;;;;;;5001624;28;20035;-92
2024/03/29 07:53:08;;;;;;;6.00;4.00;;;7.20;99.90;;;;;;5002832;28;20042;-92
2024/03/29 07:55:39;;;;;;;6.28;4.00;;;7.20;99.90;;;;;;5004405;28;20026;-91
2024/03/29 07:58:05;;;;;;;4.40;3.22;;;7.30;99.90;;;;;;5002142;28;20098;-90
2024/03/29 08:00:32;;;;;;;4.28;3.50;;;7.30;99.90;;;;;;5000865;28;20018;-90
2024/03/29 08:03:01;;;;;;;5.28;3.97;;;7.30;99.90;;;;;;5008586;28;20031;-92
2024/03/29 08:05:29;;;;;;;7.40;4.15;;;7.40;99.90;;;;;;4999640;28;20476;-90
2024/03/29 08:07:55;;;;;;;5.45;3.28;;;7.40;99.90;;;;;;5015833;28;20033;-91
2024/03/29 08:10:21;;;;;;;7.50;3.55;;;7.40;99.90;;;;;;5009033;28;20528;-88
2024/03/29 08:12:47;;;;;;;5.38;3.17;;;7.50;99.90;;;;;;5006662;28;20030;-92
2024/03/29 08:15:13;;;;;;;4.50;3.90;;;7.40;99.90;;;;;;5015309;28;20014;-90
2024/03/29 08:17:38;;;;;;;4.40;3.40;;;7.50;99.90;;;;;;5015553;28;20077;-90
2024/03/29 08:20:05;;;;;;;6.80;4.28;;;7.50;99.90;;;;;;5006087;28;20030;-91
2024/03/29 08:22:33;;;;;;;6.50;3.15;;;7.50;99.90;;;;;;5013186;28;20117;-91
2024/03/29 08:24:59;;;;;;;5.57;3.38;;;7.60;99.90;;;;;;5014565;28;20052;-88
2024/03/29 08:27:26;;;;;;;4.55;3.33;;;7.70;99.90;;;;;;5014713;28;20028;-92
2024/03/29 08:29:51;;;;;;;4.55;3.83;;;7.70;99.90;;;;;;5012310;28;20026;-90
2024/03/29 08:32:17;;;;;;;4.18;3.20;;;7.70;99.90;;;;;;5015432;28;20044;-92
2024/03/29 08:34:43;;;;;;;5.53;4.35;;;7.70;99.90;;;;;;5005372;28;20029;-91
2024/03/29 08:37:09;;;;;;;4.90;3.28;;;7.70;99.90;;;;;;5001239;28;20026;-92
2024/03/29 08:39:37;;;;;;;5.90;3.40;;;7.80;99.90;;;;;;5014581;28;20443;-92
2024/03/29 08:42:07;;;;;;;7.43;3.33;;;7.80;99.90;;;;;;5015078;28;20064;-91
2024/03/29 08:44:33;;;;;;;5.82;2.67;;;7.90;99.90;;;;;;5015126;28;20030;-91
2024/03/29 08:47:01;;;;;;;5.20;3.33;;;7.90;99.90;;;;;;5013258;28;20689;-93
2024/03/29 08:49:29;;;;;;;;;;;7.90;99.90;;;;;;5000788;28;20041;-93
2024/03/29 08:51:56;;;;;;;6.97;3.92;;;8.00;99.90;;;;;;5015782;28;19906;-90
2024/03/29 08:54:21;;;;;;;5.13;3.67;;;8.10;99.90;;;;;;5011652;28;20029;-93
2024/03/29 08:56:47;;;;;;;5.03;2.95;;;8.20;99.90;;;;;;5009391;28;20620;-91
2024/03/29 08:59:14;;;;;;;6.22;3.08;;;8.30;99.90;;;;;;5007262;28;20057;-93
2024/03/29 09:01:44;;;;;;;12.57;6.53;;;8.40;99.90;;;;;;5006410;28;20022;-91
2024/03/29 09:04:11;;;;;;;9.48;5.93;;;8.50;99.90;;;;;;5015528;28;20053;-91
2024/03/29 09:06:37;;;;;;;9.02;4.80;;;8.70;99.90;;;;;;5015845;28;20029;-93
2024/03/29 09:09:04;;;;;;;10.23;5.32;;;8.80;99.90;;;;;;5005215;28;20030;-90
2024/03/29 09:11:30;;;;;;;9.93;5.35;;;8.90;99.90;;;;;;5007538;28;20025;-94
2024/03/29 09:13:58;;;;;;;8.73;4.55;;;9.20;99.90;;;;;;5011854;28;20030;-92
2024/03/29 09:16:27;;;;;;;8.30;4.28;;;9.40;99.90;;;;;;4995575;28;20037;-92
2024/03/29 09:18:54;;;;;;;6.53;5.93;;;9.40;99.90;;;;;;5011930;28;20022;-92
2024/03/29 09:21:20;;;;;;;4.45;3.75;;;9.30;99.90;;;;;;5016258;28;20043;-90
2024/03/29 09:23:48;;;;;;;5.35;3.63;;;9.40;99.90;;;;;;5002485;28;20034;-92
2024/03/29 09:26:14;;;;;;;6.38;4.70;;;9.40;99.90;;;;;;5004310;28;20030;-92
2024/03/29 09:28:40;;;;;;;4.93;2.50;;;9.40;99.90;;;;;;5001363;28;20084;-93
2024/03/29 09:31:06;;;;;;;5.55;4.45;;;9.50;99.90;;;;;;5001308;28;20428;-91
2024/03/29 09:33:31;;;;;;;5.50;3.88;;;9.60;99.90;;;;;;5009194;28;20082;-92
2024/03/29 09:35:58;;;;;;;5.63;4.05;;;9.70;99.90;;;;;;5013274;28;20512;-93
2024/03/29 09:38:27;;;;;;;7.40;5.65;;;9.90;99.90;;;;;;5015598;28;20026;-92
2024/03/29 09:41:01;;;;;;;7.95;4.03;;;9.90;99.90;;;;;;5013750;28;20022;-93
2024/03/29 09:43:28;;;;;;;6.68;4.00;;;10.00;99.90;;;;;;4998153;28;20030;-91
2024/03/29 09:45:55;;;;;;;6.00;4.75;;;10.10;99.90;;;;;;5014314;28;20066;-92
2024/03/29 09:48:22;;;;;;;5.90;4.30;;;9.90;99.90;;;;;;5011930;28;20433;-92
2024/03/29 09:50:49;;;;;;;7.25;5.80;;;9.80;99.90;;;;;;4975673;28;20031;-92
2024/03/29 09:53:16;;;;;;;7.03;4.55;;;9.90;99.90;;;;;;4983968;28;20088;-93
2024/03/29 09:55:42;;;;;;;19.50;11.95;;;9.90;99.90;;;;;;4983936;28;20046;-92
2024/03/29 09:58:08;;;;;;;7.53;5.65;;;10.00;99.90;;;;;;4982614;28;20464;-93
2024/03/29 10:00:34;;;;;;;8.18;4.85;;;10.10;99.90;;;;;;4986910;28;20049;-91
2024/03/29 10:03:00;;;;;;;7.05;5.55;;;10.10;99.90;;;;;;4989637;28;20023;-92
2024/03/29 10:05:30;;;;;;;9.50;6.00;;;10.20;99.90;;;;;;4983843;28;20034;-93
2024/03/29 10:07:57;;;;;;;7.03;4.63;;;10.30;99.90;;;;;;4984766;28;20086;-92
2024/03/29 10:10:23;;;;;;;8.27;5.68;;;10.30;99.90;;;;;;4985759;28;20038;-91
2024/03/29 10:12:49;;;;;;;10.82;5.90;;;10.30;99.90;;;;;;4988295;28;20031;-92
2024/03/29 10:15:14;;;;;;;6.28;4.28;;;10.30;99.90;;;;;;4986663;28;20030;-92
2024/03/29 10:17:49;;;;;;;5.75;4.35;;;10.30;99.90;;;;;;4988355;28;20052;-92
2024/03/29 10:20:19;;;;;;;6.90;4.40;;;10.30;99.90;;;;;;4986688;28;20049;-93
2024/03/29 10:22:45;;;;;;;6.85;5.00;;;10.30;99.90;;;;;;4989727;28;20038;-92
2024/03/29 10:25:14;;;;;;;5.40;3.97;;;10.40;99.90;;;;;;4991815;28;20041;-91
2024/03/29 10:27:41;;;;;;;6.85;4.40;;;10.50;99.90;;;;;;4987145;28;20037;-91
2024/03/29 10:30:19;;;;;;;7.78;4.53;;;10.60;99.90;;;;;;4982392;28;20026;-92
2024/03/29 10:32:44;;;;;;;5.93;4.72;;;10.60;99.90;;;;;;4983497;28;20077;-93
2024/03/29 10:35:10;;;;;;;7.82;5.07;;;10.60;99.90;;;;;;4987793;28;20156;-92
2024/03/29 10:37:40;;;;;;;8.18;4.55;;;10.60;99.90;;;;;;4988238;28;20026;-93
2024/03/29 10:40:09;;;;;;;7.13;4.80;;;10.70;99.90;;;;;;4983306;28;20045;-93
2024/03/29 10:42:38;;;;;;;9.07;6.07;;;10.70;99.90;;;;;;4985686;28;20177;-91
2024/03/29 10:45:06;;;;;;;13.57;7.88;;;10.80;99.90;;;;;;4985750;28;20030;-91
2024/03/29 10:47:34;;;;;;;9.57;6.18;;;10.80;99.90;;;;;;4986315;28;20354;-92
2024/03/29 10:49:59;;;;;;;6.28;5.47;;;10.80;99.90;;;;;;4982210;28;20061;-91
2024/03/29 10:52:26;;;;;;;7.72;5.40;;;10.80;99.90;;;;;;4992431;28;20030;-91
2024/03/29 10:54:54;;;;;;;9.27;6.18;;;10.90;99.90;;;;;;5003116;28;20046;-91
2024/03/29 10:57:26;;;;;;;9.32;7.68;;;11.00;99.90;;;;;;4987469;28;20058;-90
2024/03/29 11:00:08;;;;;;;13.02;9.95;;;11.20;99.90;;;;;;4983548;28;20054;-91
2024/03/29 11:02:43;;;;;;;12.18;6.35;;;11.50;99.90;;;;;;4987735;28;20441;-90
2024/03/29 11:05:12;;;;;;;6.85;5.22;;;11.80;99.90;;;;;;4985255;28;20037;-90
2024/03/29 11:07:41;;;;;;;6.35;4.70;;;11.90;99.90;;;;;;4984044;28;20040;-91
2024/03/29 11:10:29;;;;;;;13.65;4.63;;;12.00;99.90;;;;;;4981571;28;20038;-90
2024/03/29 11:13:30;;;;;;;8.27;4.55;;;12.00;99.90;;;;;;4984006;28;20439;-91
2024/03/29 11:15:56;;;;;;;6.35;4.43;;;12.10;99.90;;;;;;4978234;28;20034;-91
2024/03/29 11:18:24;;;;;;;9.70;5.63;;;12.10;99.90;;;;;;4989514;28;20046;-89
2024/03/29 11:20:51;;;;;;;5.88;4.50;;;12.20;99.90;;;;;;4985386;28;20037;-91
2024/03/29 11:23:19;;;;;;;7.25;5.43;;;12.20;99.90;;;;;;4985588;28;20038;-92
2024/03/29 11:25:48;;;;;;;9.63;5.97;;;12.40;99.90;;;;;;4987800;28;20038;-91
2024/03/29 11:28:23;;;;;;;8.25;4.88;;;12.50;99.90;;;;;;4988556;28;20042;-91
2024/03/29 11:30:50;;;;;;;8.85;5.40;;;12.50;99.90;;;;;;4983512;28;20620;-92
2024/03/29 11:33:31;;;;;;;7.38;5.35;;;12.70;99.90;;;;;;4984065;28;20094;-91
2024/03/29 11:35:59;;;;;;;7.68;5.97;;;12.70;99.90;;;;;;4986237;28;20022;-91
2024/03/29 11:38:35;;;;;;;9.38;4.75;;;12.90;99.90;;;;;;4991645;28;20608;-89
2024/03/29 11:41:15;;;;;;;8.52;5.30;;;13.00;99.90;;;;;;4986710;28;20086;-95
2024/03/29 11:43:43;;;;;;;9.13;5.60;;;13.10;99.90;;;;;;4988654;28;20030;-91
2024/03/29 11:46:09;;;;;;;;;;;13.30;99.90;;;;;;4986491;28;21383;-91
2024/03/29 11:48:35;;;;;;;9.55;4.40;;;13.40;99.90;;;;;;4988556;28;19920;-90
2024/03/29 11:51:03;;;;;;;7.13;4.55;;;13.40;99.90;;;;;;4987863;28;20026;-91
2024/03/29 11:53:29;;;;;;;;;;;13.30;99.90;;;;;;4985520;28;20117;-92
2024/03/29 11:55:56;;;;;;;6.50;3.38;;;13.50;99.90;;;;;;4986314;28;19914;-92
2024/03/29 11:58:23;;;;;;;6.22;4.03;;;13.50;99.90;;;;;;4986309;28;20023;-91
2024/03/29 12:00:50;;;;;;;6.70;4.15;;;13.30;99.90;;;;;;4979255;28;20026;-93
2024/03/29 12:03:16;;;;;;;4.82;3.40;;;13.20;99.90;;;;;;4986113;28;20030;-92
2024/03/29 12:05:46;;;;;;;6.97;4.55;;;13.20;99.90;;;;;;4984395;28;20058;-93
2024/03/29 12:08:12;;;;;;;5.95;3.85;;;13.20;99.90;;;;;;4984433;28;20033;-91
2024/03/29 12:10:39;;;;;;;5.55;3.78;;;13.30;99.90;;;;;;4980356;28;20038;-92
2024/03/29 12:13:08;;;;;;;3.97;2.85;;;13.30;99.90;;;;;;4986662;28;20121;-91
2024/03/29 12:15:34;;;;;;;6.53;4.15;;;13.40;99.90;;;;;;4986153;28;20038;-92
2024/03/29 12:18:05;;;;;;;3.33;2.90;;;13.40;99.90;;;;;;4983944;28;20026;-91
2024/03/29 12:20:36;;;;;;;5.97;3.13;;;13.30;99.90;;;;;;4984035;28;20053;-91
2024/03/29 12:23:03;;;;;;;6.38;2.78;;;13.40;99.90;;;;;;4985778;28;20022;-92
2024/03/29 12:25:30;;;;;;;4.13;3.05;;;13.40;99.90;;;;;;4982542;28;20048;-93
2024/03/29 12:27:57;;;;;;;4.38;2.95;;;13.50;99.90;;;;;;4985249;28;20038;-92
2024/03/29 12:30:23;;;;;;;4.00;2.75;;;13.50;99.90;;;;;;4985890;28;20070;-92
2024/03/29 12:33:00;;;;;;;4.88;3.40;;;13.70;99.90;;;;;;4986482;28;20049;-92
2024/03/29 12:35:27;;;;;;;5.75;3.08;;;13.70;99.90;;;;;;4987612;28;20077;-92
2024/03/29 12:37:53;;;;;;;4.72;3.13;;;13.80;99.90;;;;;;4987373;28;20029;-92
2024/03/29 12:40:22;;;;;;;5.97;3.28;;;13.80;99.90;;;;;;4986006;28;20033;-92
2024/03/29 12:42:52;;;;;;;4.85;3.83;;;13.80;99.90;;;;;;4984734;28;20022;-92
2024/03/29 12:45:22;;;;;;;6.07;3.13;;;13.60;99.90;;;;;;4984411;28;20030;-92
2024/03/29 12:47:49;;;;;;;4.88;2.90;;;13.60;99.90;;;;;;4987468;28;20031;-91
2024/03/29 12:50:27;;;;;;;7.28;2.95;;;13.50;99.90;;;;;;4986443;28;20026;-92
2024/03/29 12:52:55;;;;;;;5.90;3.55;;;13.30;99.90;;;;;;5000536;28;20026;-93
2024/03/29 12:55:22;;;;;;;5.47;3.33;;;13.30;99.90;;;;;;4985454;28;20787;-91
2024/03/29 12:57:48;;;;;;;22.40;15.70;;;13.30;99.90;;;;;;4982097;28;20060;-91
2024/03/29 13:00:14;;;;;;;32.58;17.98;;;13.30;99.90;;;;;;4985197;28;20057;-93